createdAt,value
2019-05-12T00:03:48.462Z,3.74
2019-05-12T00:08:51.003Z,3.40
2019-05-12T00:13:53.343Z,3.00
2019-05-12T00:18:55.627Z,3.67
2019-05-12T00:24:12.966Z,4.03
2019-05-12T00:29:15.243Z,4.17
2019-05-12T00:34:18.419Z,3.77
2019-05-12T00:39:20.996Z,4.30
2019-05-12T00:44:23.246Z,4.27
2019-05-12T00:49:25.516Z,4.47
2019-05-12T00:54:28.434Z,4.13
2019-05-12T00:59:30.925Z,4.60
2019-05-12T01:04:33.322Z,4.53
2019-05-12T01:09:35.623Z,5.40
2019-05-12T01:14:38.337Z,5.93
2019-05-12T01:19:40.802Z,4.77
2019-05-12T01:24:43.077Z,4.60
2019-05-12T01:29:45.331Z,4.27
2019-05-12T01:34:48.660Z,4.87
2019-05-12T01:39:54.187Z,4.57
2019-05-12T01:44:58.480Z,5.10
2019-05-12T01:50:00.589Z,5.00
2019-05-12T01:55:03.155Z,5.53
2019-05-12T02:00:08.045Z,5.40
2019-05-12T02:05:11.099Z,5.90
2019-05-12T02:10:13.657Z,5.53
2019-05-12T02:15:18.229Z,5.80
2019-05-12T02:20:21.799Z,5.80
2019-05-12T02:25:24.211Z,7.10
2019-05-12T02:30:29.741Z,6.53
2019-05-12T02:35:30.457Z,6.27
2019-05-12T02:40:34.747Z,6.40
2019-05-12T02:45:36.743Z,7.03
2019-05-12T02:50:39.034Z,7.47
2019-05-12T02:55:44.779Z,6.47
2019-05-12T03:00:45.862Z,6.63
2019-05-12T03:05:50.767Z,7.93
2019-05-12T03:10:54.917Z,8.93
2019-05-12T03:15:57.434Z,8.50
2019-05-12T03:20:59.701Z,8.33
2019-05-12T03:26:04.988Z,8.93
2019-05-12T03:31:08.289Z,8.60
2019-05-12T03:36:10.565Z,8.83
2019-05-12T03:41:14.660Z,11.17
2019-05-12T03:46:17.027Z,10.83
2019-05-12T03:51:19.370Z,10.57
2019-05-12T03:56:21.652Z,10.87
2019-05-12T04:06:35.431Z,12.43
2019-05-12T04:11:37.705Z,13.27
2019-05-12T04:16:39.967Z,12.27
2019-05-12T04:21:44.681Z,12.20
2019-05-12T04:26:46.590Z,12.13
2019-05-12T04:31:48.848Z,11.37
2019-05-12T04:36:51.120Z,10.77
2019-05-12T04:41:55.169Z,9.77
2019-05-12T04:46:57.415Z,9.93
2019-05-12T04:52:00.016Z,9.23
2019-05-12T04:57:04.137Z,8.60
2019-05-12T05:02:06.265Z,7.43
2019-05-12T05:07:08.517Z,7.23
2019-05-12T05:12:13.201Z,7.67
2019-05-12T05:17:15.149Z,7.43
2019-05-12T05:22:17.532Z,6.13
2019-05-12T05:27:19.818Z,6.17
2019-05-12T05:32:23.267Z,5.87
2019-05-12T05:37:25.687Z,6.53
2019-05-12T05:42:32.642Z,6.03
2019-05-12T05:47:33.599Z,5.60
2019-05-12T05:52:38.747Z,6.10
2019-05-12T05:57:40.038Z,5.73
2019-05-12T06:02:44.167Z,6.33
2019-05-12T06:07:46.328Z,6.20
2019-05-12T06:12:50.801Z,6.73
2019-05-12T06:17:53.801Z,6.50
2019-05-12T06:22:57.665Z,6.83
2019-05-12T06:28:01.483Z,7.33
2019-05-12T06:33:04.271Z,7.30
2019-05-12T06:38:06.640Z,7.83
2019-05-12T06:43:08.915Z,7.67
2019-05-12T06:48:11.200Z,7.27
2019-05-12T06:53:14.075Z,6.80
2019-05-12T06:58:25.976Z,6.50
2019-05-12T07:03:25.887Z,5.97
2019-05-12T07:08:32.128Z,4.80
2019-05-12T07:13:34.246Z,5.23
2019-05-12T07:18:37.110Z,5.20
2019-05-12T07:23:39.446Z,4.67
2019-05-12T07:28:43.318Z,4.33
2019-05-12T07:33:46.160Z,4.00
2019-05-12T07:38:48.890Z,3.77
2019-05-12T07:43:56.701Z,4.30
2019-05-12T07:48:56.548Z,3.63
2019-05-12T07:53:59.155Z,3.90
2019-05-12T07:59:04.213Z,4.23
2019-05-12T08:04:05.463Z,3.53
2019-05-12T08:09:08.271Z,3.70
2019-05-12T08:14:13.767Z,3.60
2019-05-12T08:19:23.571Z,3.10
2019-05-12T08:24:18.745Z,3.53
2019-05-12T08:29:22.041Z,3.80
2019-05-12T08:34:25.086Z,3.40
2019-05-12T08:39:27.682Z,3.50
2019-05-12T08:44:33.838Z,3.40
2019-05-12T08:49:49.471Z,3.43
2019-05-12T08:54:39.658Z,5.93
2019-05-12T08:59:44.163Z,3.50
2019-05-12T09:04:51.248Z,3.40
2019-05-12T09:09:53.348Z,4.23
2019-05-12T09:14:55.866Z,3.30
2019-05-12T09:20:03.655Z,3.80
2019-05-12T09:25:06.335Z,3.76
2019-05-12T09:30:09.660Z,3.47
2019-05-12T09:35:10.885Z,3.67
2019-05-12T09:40:14.893Z,3.63
2019-05-12T09:45:17.471Z,3.33
2019-05-12T09:50:20.500Z,3.50
2019-05-12T09:55:24.756Z,3.90
2019-05-12T10:00:30.487Z,3.73
2019-05-12T10:05:37.556Z,3.83
2019-05-12T10:10:40.128Z,3.20
2019-05-12T10:15:39.332Z,3.97
2019-05-12T10:20:43.904Z,4.07
2019-05-12T10:25:45.772Z,3.50
2019-05-12T10:30:55.300Z,4.50
2019-05-12T10:35:54.043Z,4.10
2019-05-12T10:40:56.141Z,3.73
2019-05-12T10:45:58.817Z,4.30
2019-05-12T10:51:01.170Z,4.80
2019-05-12T10:56:03.662Z,4.20
2019-05-12T11:01:08.539Z,3.67
2019-05-12T11:06:10.027Z,4.50
2019-05-12T11:11:13.672Z,3.80
2019-05-12T11:16:16.926Z,4.13
2019-05-12T11:21:19.408Z,4.80
2019-05-12T11:26:23.467Z,4.28
2019-05-12T11:31:25.892Z,3.98
2019-05-12T11:36:43.626Z,4.40
2019-05-12T11:41:45.500Z,4.35
2019-05-12T11:46:47.785Z,3.58
2019-05-12T11:51:50.263Z,4.35
2019-05-12T11:56:53.584Z,3.77
2019-05-12T12:01:56.219Z,4.42
2019-05-12T12:06:58.603Z,4.20
2019-05-12T12:12:03.162Z,4.03
2019-05-12T12:17:04.905Z,3.58
2019-05-12T12:22:07.211Z,3.42
2019-05-12T12:27:09.501Z,4.08
2019-05-12T12:32:18.416Z,3.98
2019-05-12T12:37:18.780Z,3.05
2019-05-12T12:42:19.943Z,3.60
2019-05-12T12:47:23.803Z,3.10
2019-05-12T12:52:26.290Z,2.75
2019-05-12T12:57:28.585Z,3.30
2019-05-12T13:02:30.846Z,2.98
2019-05-12T13:07:33.457Z,3.87
2019-05-12T13:12:35.947Z,3.25
2019-05-12T13:17:41.731Z,3.08
2019-05-12T13:22:44.332Z,2.55
2019-05-12T13:27:46.348Z,2.87
2019-05-12T13:32:48.625Z,3.17
2019-05-12T13:37:56.353Z,3.27
2019-05-12T13:42:55.152Z,2.80
2019-05-12T13:47:57.499Z,2.60
2019-05-12T13:53:01.229Z,2.90
2019-05-12T13:58:04.285Z,3.00
2019-05-12T14:03:09.596Z,2.90
2019-05-12T14:08:10.597Z,3.17
2019-05-12T14:13:14.072Z,5.80
2019-05-12T14:18:20.636Z,2.15
2019-05-12T14:23:20.839Z,2.70
2019-05-12T14:28:23.499Z,2.20
2019-05-12T14:33:29.746Z,2.60
2019-05-12T14:38:30.006Z,2.85
2019-05-12T14:43:34.084Z,2.35
2019-05-12T14:48:40.407Z,2.85
2019-05-12T14:53:40.631Z,2.30
2019-05-12T14:58:44.222Z,2.40
2019-05-12T15:03:47.623Z,2.40
2019-05-12T15:08:50.812Z,2.40
2019-05-12T15:13:54.143Z,2.02
2019-05-12T15:18:56.666Z,2.20
2019-05-12T15:23:58.970Z,3.65
2019-05-12T15:29:05.281Z,6.10
2019-05-12T15:34:05.717Z,2.90
2019-05-12T15:39:08.438Z,14.78
2019-05-12T15:44:10.846Z,4.78
2019-05-12T15:49:13.256Z,6.85
2019-05-12T15:54:15.683Z,2.20
2019-05-12T15:59:18.282Z,2.90
2019-05-12T16:04:20.564Z,2.17
2019-05-12T16:09:23.836Z,2.50
2019-05-12T16:14:30.458Z,2.30
2019-05-12T16:19:30.361Z,2.20
2019-05-12T16:24:34.074Z,2.12
2019-05-12T16:29:38.989Z,2.33
2019-05-12T16:34:44.922Z,1.90
2019-05-12T16:39:47.393Z,2.22
2019-05-12T16:44:48.809Z,2.07
2019-05-12T16:49:53.336Z,2.02
2019-05-12T16:54:55.201Z,2.10
2019-05-12T17:00:05.297Z,2.65
2019-05-12T17:05:08.974Z,2.50
2019-05-12T17:10:11.589Z,1.80
2019-05-12T17:15:10.100Z,2.37
2019-05-12T17:20:13.933Z,1.70
2019-05-12T17:25:16.498Z,1.70
2019-05-12T17:30:18.954Z,1.72
2019-05-12T17:35:27.068Z,1.65
2019-05-12T17:40:25.417Z,1.87
2019-05-12T17:45:27.784Z,1.57
2019-05-12T17:50:30.487Z,1.70
2019-05-12T17:55:32.772Z,1.22
2019-05-12T18:00:35.350Z,1.52
2019-05-12T18:05:42.375Z,1.30
2019-05-12T18:10:43.635Z,1.70
2019-05-12T18:15:45.895Z,1.30
2019-05-12T18:20:48.204Z,1.87
2019-05-12T18:25:50.616Z,1.60
2019-05-12T18:30:53.848Z,1.82
2019-05-12T18:35:56.300Z,1.98
2019-05-12T18:40:58.956Z,1.67
2019-05-12T18:46:08.129Z,1.98
2019-05-12T18:51:12.015Z,1.32
2019-05-12T18:56:10.426Z,1.75
2019-05-12T19:01:14.094Z,1.90
2019-05-12T19:06:16.600Z,2.30
2019-05-12T19:11:22.980Z,2.50
2019-05-12T19:16:23.831Z,2.50
2019-05-12T19:21:26.426Z,2.57
2019-05-12T19:26:32.887Z,2.50
2019-05-12T19:31:33.389Z,2.60
2019-05-12T19:36:44.988Z,3.20
2019-05-12T19:41:40.943Z,3.27
2019-05-12T19:46:46.151Z,2.70
2019-05-12T19:51:47.237Z,3.30
2019-05-12T19:56:49.587Z,3.00
2019-05-12T20:01:53.610Z,2.40
2019-05-12T20:06:56.040Z,2.90
2019-05-12T20:12:01.335Z,2.50
2019-05-12T20:17:02.373Z,3.00
2019-05-12T20:22:06.270Z,4.80
2019-05-12T20:27:10.484Z,4.83
2019-05-12T20:32:13.942Z,6.23
2019-05-12T20:37:16.883Z,7.03
2019-05-12T20:42:19.346Z,6.43
2019-05-12T20:47:23.441Z,4.40
2019-05-12T20:52:25.815Z,4.00
2019-05-12T20:57:28.195Z,3.40
2019-05-12T21:02:30.534Z,5.63
2019-05-12T21:07:33.793Z,6.97
2019-05-12T21:12:40.185Z,5.87
2019-05-12T21:17:43.467Z,7.43
2019-05-12T21:22:44.505Z,6.43
2019-05-12T21:27:47.911Z,8.63
2019-05-12T21:32:59.070Z,5.00
2019-05-12T21:37:54.456Z,3.90
2019-05-12T21:42:57.141Z,4.50
2019-05-12T21:47:59.460Z,4.43
2019-05-12T21:53:04.159Z,4.17
2019-05-12T21:58:10.604Z,4.03
2019-05-12T22:03:13.039Z,3.33
2019-05-12T22:08:20.676Z,2.90
2019-05-12T22:13:20.674Z,3.50
2019-05-12T22:18:23.843Z,4.20
2019-05-12T22:23:26.619Z,4.17
2019-05-12T22:28:29.235Z,4.00
2019-05-12T22:33:33.389Z,3.50
2019-05-12T22:38:35.508Z,5.08
2019-05-12T22:43:41.440Z,4.60
2019-05-12T22:48:41.815Z,4.58
2019-05-12T22:53:44.080Z,3.20
2019-05-12T22:58:46.376Z,4.10
2019-05-12T23:03:51.655Z,4.63
2019-05-12T23:08:54.293Z,3.90
2019-05-12T23:13:56.771Z,3.40
2019-05-12T23:19:01.316Z,3.90
2019-05-12T23:24:03.791Z,3.80
2019-05-12T23:29:06.399Z,3.70
2019-05-12T23:34:12.404Z,3.90
2019-05-12T23:39:14.295Z,4.00
2019-05-12T23:44:16.815Z,5.60
2019-05-12T23:49:19.136Z,4.90
2019-05-12T23:54:23.619Z,4.72
2019-05-12T23:59:25.401Z,3.62
